Time,TemperatureF,DewpointF,PressureIn,WindDirection,WindDirectionDegrees,WindSpeedMPH,WindSpeedGustMPH,Humidity,HourlyPrecipIn,Conditions,Clouds,dailyrainin,SoftwareType,DateUTC
2013-05-09 00:02:00,65.0,56.0,-100.00,SE,125,1.0,2.0,72,0.03,,,-99.99,,2013-05-09 05:02:00,
2013-05-09 00:12:00,65.0,56.0,-100.00,WSW,255,0.0,2.0,73,0.04,,,-99.99,,2013-05-09 05:12:00,
2013-05-09 00:22:00,64.0,56.0,-100.00,East,90,4.0,4.0,74,0.03,,,-99.99,,2013-05-09 05:22:00,
2013-05-09 00:32:00,63.0,57.0,-100.00,East,80,4.0,6.0,79,0.00,,,-99.99,,2013-05-09 05:32:00,
2013-05-09 00:42:00,63.0,57.0,-100.00,East,80,4.0,6.0,79,0.00,,,-99.99,,2013-05-09 05:42:00,
2013-05-09 00:51:00,63.0,57.0,-100.00,ENE,65,4.0,6.0,82,0.04,,,-99.99,,2013-05-09 05:51:00,
2013-05-09 01:02:00,63.0,57.0,-100.00,ENE,65,4.0,6.0,82,0.04,,,-99.99,,2013-05-09 06:02:00,
2013-05-09 01:11:00,63.0,57.0,-100.00,East,85,4.0,5.0,82,0.00,,,-99.99,,2013-05-09 06:11:00,
2013-05-09 01:21:00,63.0,58.0,-100.00,SSW,195,4.0,6.0,83,0.03,,,-99.99,,2013-05-09 06:21:00,
2013-05-09 01:32:00,63.0,58.0,-100.00,South,185,4.0,6.0,83,0.03,,,-99.99,,2013-05-09 06:32:00,
2013-05-09 01:42:00,62.0,57.0,-100.00,SSE,150,6.0,6.0,83,0.01,,,-99.99,,2013-05-09 06:42:00,
2013-05-09 01:52:00,62.0,57.0,-100.00,SSE,155,6.0,7.0,83,0.00,,,-99.99,,2013-05-09 06:52:00,
2013-05-09 02:01:00,62.0,57.0,-100.00,SSE,155,6.0,7.0,83,0.00,,,-99.99,,2013-05-09 07:01:00,
2013-05-09 02:12:00,63.0,58.0,-100.00,SE,135,8.0,10.0,83,0.00,,,-99.99,,2013-05-09 07:12:00,
2013-05-09 02:21:00,63.0,57.0,-100.00,SE,140,7.0,9.0,82,0.00,,,-99.99,,2013-05-09 07:21:00,
2013-05-09 02:32:00,63.0,57.0,-100.00,SE,140,8.0,11.0,81,0.00,,,-99.99,,2013-05-09 07:32:00,
2013-05-09 02:42:00,63.0,57.0,-100.00,SE,140,8.0,11.0,81,0.00,,,-99.99,,2013-05-09 07:42:00,
2013-05-09 02:52:00,63.0,57.0,-100.00,SE,140,8.0,11.0,81,0.00,,,-99.99,,2013-05-09 07:52:00,
2013-05-09 03:02:00,63.0,57.0,-100.00,SE,140,8.0,11.0,81,0.00,,,-99.99,,2013-05-09 08:02:00,
2013-05-09 03:11:00,63.0,57.0,-100.00,SE,140,8.0,11.0,81,0.00,,,-99.99,,2013-05-09 08:11:00,
2013-05-09 07:22:00,61.0,57.0,-100.00,SW,225,4.0,9.0,85,0.00,,,-99.99,,2013-05-09 12:22:00,
2013-05-09 07:32:00,62.0,57.0,-100.00,SSW,200,6.0,7.0,84,0.00,,,-99.99,,2013-05-09 12:32:00,
2013-05-09 07:42:00,62.0,57.0,-100.00,SSW,200,6.0,7.0,84,0.00,,,-99.99,,2013-05-09 12:42:00,
2013-05-09 07:52:00,61.0,57.0,-100.00,SSW,210,8.0,11.0,84,0.00,,,-99.99,,2013-05-09 12:52:00,
2013-05-09 08:01:00,61.0,57.0,-100.00,SSW,210,8.0,11.0,84,0.00,,,-99.99,,2013-05-09 13:01:00,
2013-05-09 08:12:00,61.0,57.0,-100.00,South,185,7.0,11.0,84,0.00,,,-99.99,,2013-05-09 13:12:00,
2013-05-09 08:21:00,61.0,56.0,-100.00,South,180,8.0,12.0,84,0.03,,,-99.99,,2013-05-09 13:21:00,
2013-05-09 08:32:00,61.0,57.0,-100.00,ESE,110,4.0,12.0,85,0.04,,,-99.99,,2013-05-09 13:32:00,
2013-05-09 08:42:00,61.0,57.0,-100.00,ESE,110,4.0,12.0,85,0.04,,,-99.99,,2013-05-09 13:42:00,
2013-05-09 08:52:00,62.0,58.0,-100.00,SSE,150,5.0,6.0,85,0.00,,,-99.99,,2013-05-09 13:52:00,
2013-05-09 09:01:00,62.0,58.0,-100.00,SSE,150,5.0,6.0,85,0.00,,,-99.99,,2013-05-09 14:01:00,
2013-05-09 09:11:00,62.0,58.0,-100.00,SSE,165,5.0,8.0,85,0.00,,,-99.99,,2013-05-09 14:11:00,
2013-05-09 09:21:00,63.0,58.0,-100.00,South,190,4.0,7.0,85,0.00,,,-99.99,,2013-05-09 14:21:00,
2013-05-09 09:32:00,64.0,59.0,-100.00,SSW,205,1.0,4.0,84,0.00,,,-99.99,,2013-05-09 14:32:00,
2013-05-09 09:41:00,64.0,59.0,-100.00,SSW,205,1.0,4.0,84,0.00,,,-99.99,,2013-05-09 14:41:00,
2013-05-09 09:52:00,65.0,59.0,-100.00,SSW,195,1.0,4.0,82,0.00,,,-99.99,,2013-05-09 14:52:00,
2013-05-09 10:01:00,65.0,59.0,-100.00,SSW,195,1.0,4.0,82,0.00,,,-99.99,,2013-05-09 15:01:00,
2013-05-09 10:11:00,65.0,59.0,-100.00,WSW,250,1.0,2.0,80,0.00,,,-99.99,,2013-05-09 15:11:00,
2013-05-09 10:21:00,66.0,59.0,-100.00,West,270,1.0,3.0,79,0.00,,,-99.99,,2013-05-09 15:21:00,
2013-05-09 10:33:00,67.0,59.0,-100.00,SW,215,4.0,7.0,74,0.00,,,-99.99,,2013-05-09 15:33:00,
2013-05-09 10:43:00,67.0,59.0,-100.00,SW,215,4.0,7.0,74,0.00,,,-99.99,,2013-05-09 15:43:00,
2013-05-09 10:52:00,68.0,56.0,-100.00,SSW,200,10.0,14.0,66,0.00,,,-99.99,,2013-05-09 15:52:00,
2013-05-09 11:03:00,68.0,56.0,-100.00,SSW,200,10.0,14.0,66,0.00,,,-99.99,,2013-05-09 16:03:00,
2013-05-09 11:12:00,68.0,57.0,-100.00,SSW,195,6.0,15.0,67,0.00,,,-99.99,,2013-05-09 16:12:00,
2013-05-09 11:22:00,68.0,56.0,-100.00,SSW,205,6.0,12.0,66,0.00,,,-99.99,,2013-05-09 16:22:00,
2013-05-09 11:33:00,69.0,56.0,-100.00,SW,225,4.0,9.0,64,0.00,,,-99.99,,2013-05-09 16:33:00,
2013-05-09 11:42:00,69.0,56.0,-100.00,SW,225,4.0,9.0,64,0.00,,,-99.99,,2013-05-09 16:42:00,
2013-05-09 11:52:00,69.0,57.0,-100.00,SSW,210,1.0,6.0,64,0.00,,,-99.99,,2013-05-09 16:52:00,
2013-05-09 12:02:00,69.0,57.0,-100.00,SSW,210,1.0,6.0,64,0.00,,,-99.99,,2013-05-09 17:02:00,
2013-05-09 12:12:00,69.0,56.0,-100.00,SSE,150,3.0,7.0,64,0.00,,,-99.99,,2013-05-09 17:12:00,
2013-05-09 12:21:00,70.0,57.0,-100.00,South,175,1.0,6.0,63,0.00,,,-99.99,,2013-05-09 17:21:00,
2013-05-09 12:32:00,71.0,56.0,-100.00,South,170,3.0,7.0,60,0.00,,,-99.99,,2013-05-09 17:32:00,
2013-05-09 12:42:00,71.0,56.0,-100.00,South,170,3.0,7.0,60,0.00,,,-99.99,,2013-05-09 17:42:00,
2013-05-09 12:55:00,70.0,55.0,-100.00,SSW,195,6.0,12.0,58,0.00,,,-99.99,,2013-05-09 17:55:00,
2013-05-09 13:01:00,70.0,55.0,-100.00,SSW,195,6.0,12.0,58,0.00,,,-99.99,,2013-05-09 18:01:00,
2013-05-09 13:12:00,70.0,55.0,-100.00,SSW,200,6.0,9.0,59,0.00,,,-99.99,,2013-05-09 18:12:00,
2013-05-09 13:21:00,70.0,55.0,-100.00,SW,225,5.0,9.0,59,0.00,,,-99.99,,2013-05-09 18:21:00,
2013-05-09 13:32:00,70.0,55.0,-100.00,SSW,195,11.0,16.0,59,0.00,,,-99.99,,2013-05-09 18:32:00,
2013-05-09 13:42:00,70.0,55.0,-100.00,SSW,195,11.0,16.0,59,0.00,,,-99.99,,2013-05-09 18:42:00,
2013-05-09 13:52:00,69.0,56.0,-100.00,SSW,210,11.0,17.0,64,0.03,,,-99.99,,2013-05-09 18:52:00,
2013-05-09 14:01:00,69.0,56.0,-100.00,SSW,210,11.0,17.0,64,0.03,,,-99.99,,2013-05-09 19:01:00,
2013-05-09 14:11:00,68.0,56.0,-100.00,SSW,210,9.0,17.0,64,0.00,,,-99.99,,2013-05-09 19:11:00,
2013-05-09 14:21:00,69.0,57.0,-100.00,South,185,8.0,14.0,65,0.00,,,-99.99,,2013-05-09 19:21:00,
2013-05-09 14:31:00,69.0,57.0,-100.00,SSW,210,12.0,16.0,66,0.00,,,-99.99,,2013-05-09 19:31:00,
2013-05-09 14:41:00,69.0,57.0,-100.00,SSW,210,12.0,16.0,66,0.00,,,-99.99,,2013-05-09 19:41:00,
2013-05-09 14:52:00,68.0,57.0,-100.00,SSW,210,14.0,17.0,66,0.00,,,-99.99,,2013-05-09 19:52:00,
2013-05-09 15:01:00,68.0,57.0,-100.00,SSW,210,14.0,17.0,66,0.00,,,-99.99,,2013-05-09 20:01:00,
2013-05-09 15:11:00,67.0,57.0,-100.00,SSW,205,12.0,19.0,69,0.00,,,-99.99,,2013-05-09 20:11:00,
2013-05-09 15:22:00,65.0,58.0,-100.00,SW,220,12.0,21.0,76,0.03,,,-99.99,,2013-05-09 20:22:00,
2013-05-09 15:32:00,64.0,60.0,-100.00,SSW,200,7.0,17.0,85,0.11,,,-99.99,,2013-05-09 20:32:00,
2013-05-09 15:42:00,64.0,60.0,-100.00,SSW,200,7.0,17.0,85,0.11,,,-99.99,,2013-05-09 20:42:00,
2013-05-09 15:52:00,64.0,60.0,-100.00,South,185,8.0,14.0,87,0.00,,,-99.99,,2013-05-09 20:52:00,
2013-05-09 16:02:00,64.0,60.0,-100.00,South,185,8.0,14.0,87,0.00,,,-99.99,,2013-05-09 21:02:00,
2013-05-09 16:11:00,65.0,61.0,-100.00,South,185,9.0,12.0,87,0.00,,,-99.99,,2013-05-09 21:11:00,
2013-05-09 16:22:00,65.0,61.0,-100.00,SSW,195,7.0,11.0,87,0.00,,,-99.99,,2013-05-09 21:22:00,
2013-05-09 16:32:00,65.0,61.0,-100.00,South,185,8.0,12.0,87,0.00,,,-99.99,,2013-05-09 21:32:00,
2013-05-09 16:43:00,65.0,61.0,-100.00,South,185,8.0,12.0,87,0.00,,,-99.99,,2013-05-09 21:43:00,
2013-05-09 16:52:00,64.0,60.0,-100.00,SSW,205,11.0,15.0,87,0.04,,,-99.99,,2013-05-09 21:52:00,
2013-05-09 17:03:00,64.0,60.0,-100.00,SSW,205,11.0,15.0,87,0.04,,,-99.99,,2013-05-09 22:03:00,
2013-05-09 17:12:00,64.0,60.0,-100.00,SSW,195,9.0,13.0,87,0.13,,,-99.99,,2013-05-09 22:12:00,
2013-05-09 17:22:00,63.0,60.0,-100.00,SSW,210,9.0,12.0,87,0.01,,,-99.99,,2013-05-09 22:22:00,
2013-05-09 17:33:00,63.0,60.0,-100.00,SSW,210,7.0,12.0,87,0.01,,,-99.99,,2013-05-09 22:33:00,
2013-05-09 17:42:00,63.0,60.0,-100.00,SSW,210,7.0,12.0,87,0.01,,,-99.99,,2013-05-09 22:42:00,
2013-05-09 17:52:00,63.0,59.0,-100.00,SSW,210,10.0,13.0,87,0.28,,,-99.99,,2013-05-09 22:52:00,
2013-05-09 18:02:00,63.0,59.0,-100.00,SSW,210,10.0,13.0,87,0.28,,,-99.99,,2013-05-09 23:02:00,
2013-05-09 18:12:00,63.0,59.0,-100.00,SSW,205,9.0,12.0,87,0.33,,,-99.99,,2013-05-09 23:12:00,
2013-05-09 18:21:00,63.0,59.0,-100.00,SSW,200,10.0,14.0,87,0.30,,,-99.99,,2013-05-09 23:21:00,
2013-05-09 18:32:00,63.0,59.0,-100.00,SSW,200,12.0,17.0,87,0.21,,,-99.99,,2013-05-09 23:32:00,
2013-05-09 18:42:00,63.0,59.0,-100.00,SSW,200,12.0,17.0,87,0.21,,,-99.99,,2013-05-09 23:42:00,
2013-05-09 18:52:00,62.0,59.0,-100.00,SSW,205,14.0,18.0,87,0.18,,,-99.99,,2013-05-09 23:52:00,
2013-05-09 19:01:00,62.0,59.0,-100.00,SSW,205,14.0,18.0,87,0.18,,,-99.99,,2013-05-10 00:01:00,
2013-05-09 19:11:00,62.0,59.0,-100.00,SSW,200,12.0,17.0,87,0.24,,,-99.99,,2013-05-10 00:11:00,
2013-05-09 19:22:00,62.0,59.0,-100.00,SSW,200,11.0,17.0,87,0.20,,,-99.99,,2013-05-10 00:22:00,
2013-05-09 19:32:00,63.0,59.0,-100.00,SSW,210,6.0,12.0,87,0.00,,,-99.99,,2013-05-10 00:32:00,
2013-05-09 19:42:00,63.0,59.0,-100.00,SSW,210,6.0,12.0,87,0.00,,,-99.99,,2013-05-10 00:42:00,
2013-05-09 19:51:00,62.0,59.0,-100.00,SW,220,6.0,14.0,87,0.00,,,-99.99,,2013-05-10 00:51:00,
2013-05-09 20:01:00,62.0,59.0,-100.00,SW,220,6.0,14.0,87,0.00,,,-99.99,,2013-05-10 01:01:00,
2013-05-09 20:11:00,62.0,58.0,-100.00,WSW,250,6.0,11.0,87,0.01,,,-99.99,,2013-05-10 01:11:00,
2013-05-09 20:21:00,61.0,57.0,-100.00,West,280,7.0,12.0,87,0.00,,,-99.99,,2013-05-10 01:21:00,
2013-05-09 20:32:00,60.0,57.0,-100.00,West,260,4.0,9.0,87,0.00,,,-99.99,,2013-05-10 01:32:00,
2013-05-09 20:41:00,60.0,57.0,-100.00,West,260,4.0,9.0,87,0.00,,,-99.99,,2013-05-10 01:41:00,
2013-05-09 20:52:00,60.0,57.0,-100.00,West,265,4.0,8.0,87,0.00,,,-99.99,,2013-05-10 01:52:00,
2013-05-09 21:01:00,60.0,57.0,-100.00,West,265,4.0,8.0,87,0.00,,,-99.99,,2013-05-10 02:01:00,
2013-05-09 21:11:00,60.0,57.0,-100.00,West,275,4.0,7.0,87,0.00,,,-99.99,,2013-05-10 02:11:00,
2013-05-09 21:21:00,61.0,57.0,-100.00,WNW,290,5.0,6.0,87,0.00,,,-99.99,,2013-05-10 02:21:00,
2013-05-09 21:32:00,61.0,57.0,-100.00,NW,305,5.0,7.0,87,0.00,,,-99.99,,2013-05-10 02:32:00,
2013-05-09 21:42:00,61.0,58.0,-100.00,NNW,330,6.0,8.0,87,0.00,,,-99.99,,2013-05-10 02:42:00,
2013-05-09 21:52:00,62.0,58.0,-100.00,NNW,330,7.0,10.0,87,0.01,,,-99.99,,2013-05-10 02:52:00,
2013-05-09 22:01:00,61.0,58.0,-100.00,NNW,330,6.0,10.0,87,0.00,,,-99.99,,2013-05-10 03:01:00,
2013-05-09 22:11:00,61.0,57.0,-100.00,NW,305,6.0,-999.0,87,0.00,,,-99.99,,2013-05-10 03:11:00,
2013-05-09 22:21:00,61.0,57.0,-100.00,WNW,300,7.0,8.0,87,0.00,,,-99.99,,2013-05-10 03:21:00,
2013-05-09 22:33:00,61.0,57.0,-100.00,WNW,295,7.0,9.0,87,0.00,,,-99.99,,2013-05-10 03:33:00,
2013-05-09 22:43:00,61.0,57.0,-100.00,WNW,295,7.0,9.0,87,0.00,,,-99.99,,2013-05-10 03:43:00,
2013-05-09 22:52:00,60.0,57.0,-100.00,WNW,285,6.0,8.0,87,0.00,,,-99.99,,2013-05-10 03:52:00,
2013-05-09 23:03:00,60.0,57.0,-100.00,WNW,285,6.0,8.0,87,0.00,,,-99.99,,2013-05-10 04:03:00,
2013-05-09 23:12:00,60.0,57.0,-100.00,WNW,285,7.0,10.0,87,0.00,,,-99.99,,2013-05-10 04:12:00,
2013-05-09 23:23:00,60.0,57.0,-100.00,WNW,290,6.0,11.0,87,0.00,,,-99.99,,2013-05-10 04:23:00,
2013-05-09 23:33:00,60.0,57.0,-100.00,WNW,300,7.0,11.0,87,0.00,,,-99.99,,2013-05-10 04:33:00,
2013-05-09 23:43:00,60.0,57.0,-100.00,WNW,300,7.0,11.0,87,0.00,,,-99.99,,2013-05-10 04:43:00,
2013-05-09 23:52:00,60.0,56.0,-100.00,WNW,300,7.0,9.0,87,0.00,,,-99.99,,2013-05-10 04:52:00,